Terminal Aerodrome Forecast
Issued by NWS

Home | Current Version | Previous Version | Text Only | Print | Product List | Glossary On
Versions: 1 2 3 4 5 6 7 8 9 10 11 12 13 14 15 16 17 18 19
453
FTUS42 TJSJ 241202 AAE
TAFISX
TAF AMD
TISX 241202Z 2412/2512 00000KT 4SM RA BR OVC050
      TEMPO 2412/2414 1 1/2SM +RA BKN035 OVC045
     FM241400 12012KT P6SM VCTS SCT025CB BKN050
     FM242300 07006KT P6SM VCSH SCT020 SCT040 BKN080
     FM250600 06004KT P6SM VCSH BKN022 OVC030=

USA.gov is the U.S. government's official web portal to all federal, state and local government web resources and services.